Schwerin, Germany

12:13 PM CET on February 08, 2016 (GMT +0100)
Klein Rogahn | | Change Station
CLOSE
Current Station
Personal Weather Station
Location: Klein Rogahn, MECKLENBURG-VORPOMMERN
Elevation: 168 ft
Nearby Weather Stations

Elev 168 ft 53.61 °N, 11.34 °E | Updated 1 minute ago

Mostly Cloudy
Mostly Cloudy
46.6 °F
Feels Like 43 °F
N
6.9
Wind Variable Wind from SE
Gusts 9.2 mph

Today
High -- | Low -- °F
--% Chance of Precip.
Yesterday
High -- | Low -- °F
Precip. -- in
Pressure 29.24 in
Visibility 6.2 miles
Clouds Mostly Cloudy 3700 ft
Windchill 43 °F
Dew Point 46 °F
Humidity 99%
Rainfall 0.05 in
Snow Depth Not available.
7:48 AM 5:09 PM
Waning Crescent, 0% visible
SPECI EDOP 081052Z 18019G30KT 9999 BKN037 08/04 Q0990 RMK ATIS TAN
Pressure 29.24 in
Visibility 6.2 miles
Clouds Mostly Cloudy 3700 ft
Windchill 43 °F
Dew Point 46 °F
Humidity 99%
Rainfall 0.05 in
Snow Depth Not available.
7:48 AM 5:09 PM
Waning Crescent, 0% visible
SPECI EDOP 081052Z 18019G30KT 9999 BKN037 08/04 Q0990 RMK ATIS TAN

10-Day Weather Forecast

Almanac

Astronomy

Feb. 08, 2016 Rise Set
Actual Time
Civil Twilight
Nautical Twilight
Astronomical Twilight
Moon
Length of Visible Light
Length of Day
Tomorrow will be .
, % of the Moon is Illuminated

Today's Extremes

Country Highs Country Lows

Community

WunderPhotos

Upload Photos

1,891,420 photos uploaded!

WunderBlog® & News

Nearby

Air Quality

  Air Quality AQ Index Pollutant
Not available.

Snow Depth

Station Depth Elevation

Earthquake Activity

City Distance Mag. Time & Date
Minimum magnitude displayed is 2.5.

Coastal Water Temperatures

Place Temperature

Stations

Nearby Weather Stations

Station Location Temp. Windchill Dew Point Humidity Wind Precip. Elev Updated Type